sensor_id;sensor_type;location;lat;lon;timestamp;temperature;humidity
23579;DHT22;11967;50.852;4.400;2023-04-03T00:01:10;10.50;99.90
23579;DHT22;11967;50.852;4.400;2023-04-03T00:03:36;10.50;99.90
23579;DHT22;11967;50.852;4.400;2023-04-03T00:06:02;10.50;99.90
23579;DHT22;11967;50.852;4.400;2023-04-03T00:08:28;10.50;99.90
23579;DHT22;11967;50.852;4.400;2023-04-03T00:10:56;10.40;99.90
23579;DHT22;11967;50.852;4.400;2023-04-03T00:13:22;10.40;99.90
23579;DHT22;11967;50.852;4.400;2023-04-03T00:15:49;10.50;99.90
23579;DHT22;11967;50.852;4.400;2023-04-03T00:18:14;10.30;99.90
23579;DHT22;11967;50.852;4.400;2023-04-03T00:20:41;10.20;99.90
23579;DHT22;11967;50.852;4.400;2023-04-03T00:23:07;10.20;99.90
23579;DHT22;11967;50.852;4.400;2023-04-03T00:25:33;10.10;99.90
23579;DHT22;11967;50.852;4.400;2023-04-03T00:27:58;10.10;99.90
23579;DHT22;11967;50.852;4.400;2023-04-03T00:30:24;10.00;99.90
23579;DHT22;11967;50.852;4.400;2023-04-03T00:32:50;10.10;99.90
23579;DHT22;11967;50.852;4.400;2023-04-03T00:35:17;10.00;99.90
23579;DHT22;11967;50.852;4.400;2023-04-03T00:37:44;10.10;99.90
23579;DHT22;11967;50.852;4.400;2023-04-03T00:40:11;10.10;99.90
23579;DHT22;11967;50.852;4.400;2023-04-03T00:42:38;10.00;99.90
23579;DHT22;11967;50.852;4.400;2023-04-03T00:47:30;9.90;99.90
23579;DHT22;11967;50.852;4.400;2023-04-03T00:49:57;10.00;99.90
23579;DHT22;11967;50.852;4.400;2023-04-03T00:52:26;9.90;99.90
23579;DHT22;11967;50.852;4.400;2023-04-03T00:54:58;9.90;99.90
23579;DHT22;11967;50.852;4.400;2023-04-03T00:57:25;9.90;99.90
23579;DHT22;11967;50.852;4.400;2023-04-03T00:59:55;9.90;99.90
23579;DHT22;11967;50.852;4.400;2023-04-03T01:02:22;9.90;99.90
23579;DHT22;11967;50.852;4.400;2023-04-03T01:04:47;9.90;99.90
23579;DHT22;11967;50.852;4.400;2023-04-03T01:07:22;9.90;99.90
23579;DHT22;11967;50.852;4.400;2023-04-03T01:09:51;9.90;99.90
23579;DHT22;11967;50.852;4.400;2023-04-03T01:12:29;9.90;99.90
23579;DHT22;11967;50.852;4.400;2023-04-03T01:14:57;9.80;99.90
23579;DHT22;11967;50.852;4.400;2023-04-03T01:17:33;9.80;99.90
23579;DHT22;11967;50.852;4.400;2023-04-03T01:28:03;9.80;99.90
23579;DHT22;11967;50.852;4.400;2023-04-03T01:30:36;9.70;99.90
23579;DHT22;11967;50.852;4.400;2023-04-03T01:33:05;9.80;99.90
23579;DHT22;11967;50.852;4.400;2023-04-03T01:35:30;9.70;99.90
23579;DHT22;11967;50.852;4.400;2023-04-03T01:37:56;9.70;99.90
23579;DHT22;11967;50.852;4.400;2023-04-03T01:40:21;9.70;99.90
23579;DHT22;11967;50.852;4.400;2023-04-03T01:42:47;9.70;99.90
23579;DHT22;11967;50.852;4.400;2023-04-03T01:45:13;9.70;99.90
23579;DHT22;11967;50.852;4.400;2023-04-03T01:47:38;9.60;99.90
23579;DHT22;11967;50.852;4.400;2023-04-03T01:50:04;9.60;99.90
23579;DHT22;11967;50.852;4.400;2023-04-03T01:52:30;9.60;99.90
23579;DHT22;11967;50.852;4.400;2023-04-03T01:54:55;9.50;99.90
23579;DHT22;11967;50.852;4.400;2023-04-03T01:57:21;9.60;99.90
23579;DHT22;11967;50.852;4.400;2023-04-03T01:59:46;9.60;99.90
23579;DHT22;11967;50.852;4.400;2023-04-03T02:02:12;9.50;99.90
23579;DHT22;11967;50.852;4.400;2023-04-03T02:04:40;9.50;99.90
23579;DHT22;11967;50.852;4.400;2023-04-03T02:07:05;9.50;99.90
23579;DHT22;11967;50.852;4.400;2023-04-03T02:09:31;9.50;99.90
23579;DHT22;11967;50.852;4.400;2023-04-03T02:11:57;9.60;99.90
23579;DHT22;11967;50.852;4.400;2023-04-03T02:14:22;9.50;99.90
23579;DHT22;11967;50.852;4.400;2023-04-03T02:16:49;9.50;99.90
23579;DHT22;11967;50.852;4.400;2023-04-03T02:19:15;9.50;99.90
23579;DHT22;11967;50.852;4.400;2023-04-03T02:21:41;9.50;99.90
23579;DHT22;11967;50.852;4.400;2023-04-03T02:24:07;9.40;99.90
23579;DHT22;11967;50.852;4.400;2023-04-03T02:26:32;9.30;99.90
23579;DHT22;11967;50.852;4.400;2023-04-03T02:28:58;9.20;99.90
23579;DHT22;11967;50.852;4.400;2023-04-03T02:31:23;9.20;99.90
23579;DHT22;11967;50.852;4.400;2023-04-03T02:33:49;9.20;99.90
23579;DHT22;11967;50.852;4.400;2023-04-03T02:36:16;9.10;99.90
23579;DHT22;11967;50.852;4.400;2023-04-03T02:38:41;9.20;99.90
23579;DHT22;11967;50.852;4.400;2023-04-03T02:41:09;9.20;99.90
23579;DHT22;11967;50.852;4.400;2023-04-03T02:43:35;9.20;99.90
23579;DHT22;11967;50.852;4.400;2023-04-03T02:46:01;9.20;99.90
23579;DHT22;11967;50.852;4.400;2023-04-03T02:48:27;9.10;99.90
23579;DHT22;11967;50.852;4.400;2023-04-03T02:50:53;9.10;99.90
23579;DHT22;11967;50.852;4.400;2023-04-03T02:53:19;9.10;99.90
23579;DHT22;11967;50.852;4.400;2023-04-03T02:55:45;9.20;99.90
23579;DHT22;11967;50.852;4.400;2023-04-03T02:58:11;9.20;99.90
23579;DHT22;11967;50.852;4.400;2023-04-03T03:00:37;9.30;99.90
23579;DHT22;11967;50.852;4.400;2023-04-03T03:03:03;9.30;99.90
23579;DHT22;11967;50.852;4.400;2023-04-03T03:05:30;9.30;99.90
23579;DHT22;11967;50.852;4.400;2023-04-03T03:07:56;9.20;99.90
23579;DHT22;11967;50.852;4.400;2023-04-03T03:10:22;9.00;99.90
23579;DHT22;11967;50.852;4.400;2023-04-03T03:12:47;9.20;99.90
23579;DHT22;11967;50.852;4.400;2023-04-03T03:15:13;9.20;99.90
23579;DHT22;11967;50.852;4.400;2023-04-03T03:17:40;9.20;99.90
23579;DHT22;11967;50.852;4.400;2023-04-03T03:20:07;9.30;99.90
23579;DHT22;11967;50.852;4.400;2023-04-03T03:22:33;9.40;99.90
23579;DHT22;11967;50.852;4.400;2023-04-03T03:24:59;9.30;99.90
23579;DHT22;11967;50.852;4.400;2023-04-03T03:27:26;9.40;99.90
23579;DHT22;11967;50.852;4.400;2023-04-03T03:29:52;9.30;99.90
23579;DHT22;11967;50.852;4.400;2023-04-03T03:32:17;9.30;99.90
23579;DHT22;11967;50.852;4.400;2023-04-03T03:34:43;9.30;99.90
23579;DHT22;11967;50.852;4.400;2023-04-03T03:37:08;9.30;99.90
23579;DHT22;11967;50.852;4.400;2023-04-03T03:39:34;9.40;99.90
23579;DHT22;11967;50.852;4.400;2023-04-03T03:41:59;9.30;99.90
23579;DHT22;11967;50.852;4.400;2023-04-03T03:44:25;9.30;99.90
23579;DHT22;11967;50.852;4.400;2023-04-03T03:46:51;9.30;99.90
23579;DHT22;11967;50.852;4.400;2023-04-03T03:49:16;9.20;99.90
23579;DHT22;11967;50.852;4.400;2023-04-03T03:51:42;9.20;99.90
23579;DHT22;11967;50.852;4.400;2023-04-03T03:54:08;9.20;99.90
23579;DHT22;11967;50.852;4.400;2023-04-03T03:56:33;9.20;99.90
23579;DHT22;11967;50.852;4.400;2023-04-03T03:58:59;9.20;99.90
23579;DHT22;11967;50.852;4.400;2023-04-03T04:01:25;9.30;99.90
23579;DHT22;11967;50.852;4.400;2023-04-03T04:03:50;9.20;99.90
23579;DHT22;11967;50.852;4.400;2023-04-03T04:06:16;9.20;99.90
23579;DHT22;11967;50.852;4.400;2023-04-03T04:08:42;9.30;99.90
23579;DHT22;11967;50.852;4.400;2023-04-03T04:11:08;9.20;99.90
23579;DHT22;11967;50.852;4.400;2023-04-03T04:13:34;9.20;99.90
23579;DHT22;11967;50.852;4.400;2023-04-03T04:16:00;9.10;99.90
23579;DHT22;11967;50.852;4.400;2023-04-03T04:18:26;9.20;99.90
23579;DHT22;11967;50.852;4.400;2023-04-03T04:20:51;9.30;99.90
23579;DHT22;11967;50.852;4.400;2023-04-03T04:23:18;9.30;99.90
23579;DHT22;11967;50.852;4.400;2023-04-03T04:25:51;9.20;99.90
23579;DHT22;11967;50.852;4.400;2023-04-03T04:28:17;9.20;99.90
23579;DHT22;11967;50.852;4.400;2023-04-03T04:30:43;9.20;99.90
23579;DHT22;11967;50.852;4.400;2023-04-03T04:33:09;9.20;99.90
23579;DHT22;11967;50.852;4.400;2023-04-03T04:35:35;9.10;99.90
23579;DHT22;11967;50.852;4.400;2023-04-03T04:38:01;9.10;99.90
23579;DHT22;11967;50.852;4.400;2023-04-03T04:40:26;8.90;99.90
23579;DHT22;11967;50.852;4.400;2023-04-03T04:42:52;8.90;99.90
23579;DHT22;11967;50.852;4.400;2023-04-03T04:45:18;8.90;99.90
23579;DHT22;11967;50.852;4.400;2023-04-03T04:47:43;8.90;99.90
23579;DHT22;11967;50.852;4.400;2023-04-03T04:50:10;9.10;99.90
23579;DHT22;11967;50.852;4.400;2023-04-03T04:52:37;8.90;99.90
23579;DHT22;11967;50.852;4.400;2023-04-03T04:55:03;9.00;99.90
23579;DHT22;11967;50.852;4.400;2023-04-03T04:57:29;9.00;99.90
23579;DHT22;11967;50.852;4.400;2023-04-03T04:59:54;9.00;99.90
23579;DHT22;11967;50.852;4.400;2023-04-03T05:02:20;8.90;99.90
23579;DHT22;11967;50.852;4.400;2023-04-03T05:04:46;8.90;99.90
23579;DHT22;11967;50.852;4.400;2023-04-03T05:07:13;8.90;99.90
23579;DHT22;11967;50.852;4.400;2023-04-03T05:09:38;8.80;99.90
23579;DHT22;11967;50.852;4.400;2023-04-03T05:12:06;8.70;99.90
23579;DHT22;11967;50.852;4.400;2023-04-03T05:14:32;8.80;99.90
23579;DHT22;11967;50.852;4.400;2023-04-03T05:16:57;8.70;99.90
23579;DHT22;11967;50.852;4.400;2023-04-03T05:19:23;8.70;99.90
23579;DHT22;11967;50.852;4.400;2023-04-03T05:21:49;8.80;99.90
23579;DHT22;11967;50.852;4.400;2023-04-03T05:24:15;8.70;99.90
23579;DHT22;11967;50.852;4.400;2023-04-03T05:26:42;8.60;99.90
23579;DHT22;11967;50.852;4.400;2023-04-03T05:29:07;8.70;99.90
23579;DHT22;11967;50.852;4.400;2023-04-03T05:31:33;8.70;99.90
23579;DHT22;11967;50.852;4.400;2023-04-03T05:34:01;8.70;99.90
23579;DHT22;11967;50.852;4.400;2023-04-03T05:36:27;8.70;99.90
23579;DHT22;11967;50.852;4.400;2023-04-03T05:38:53;8.80;99.90
23579;DHT22;11967;50.852;4.400;2023-04-03T05:41:19;8.70;99.90
23579;DHT22;11967;50.852;4.400;2023-04-03T05:43:46;8.70;99.90
23579;DHT22;11967;50.852;4.400;2023-04-03T05:46:13;8.70;99.90
23579;DHT22;11967;50.852;4.400;2023-04-03T05:48:40;8.70;99.90
23579;DHT22;11967;50.852;4.400;2023-04-03T05:51:06;8.70;99.90
23579;DHT22;11967;50.852;4.400;2023-04-03T05:53:35;8.60;99.90
23579;DHT22;11967;50.852;4.400;2023-04-03T05:56:03;8.60;99.90
23579;DHT22;11967;50.852;4.400;2023-04-03T05:58:30;8.50;99.90
23579;DHT22;11967;50.852;4.400;2023-04-03T06:00:56;8.50;99.90
23579;DHT22;11967;50.852;4.400;2023-04-03T06:03:22;8.60;99.90
23579;DHT22;11967;50.852;4.400;2023-04-03T06:05:48;8.60;99.90
23579;DHT22;11967;50.852;4.400;2023-04-03T06:08:14;8.70;99.90
23579;DHT22;11967;50.852;4.400;2023-04-03T06:10:40;8.70;99.90
23579;DHT22;11967;50.852;4.400;2023-04-03T06:13:06;8.70;99.90
23579;DHT22;11967;50.852;4.400;2023-04-03T06:15:32;8.70;99.90
23579;DHT22;11967;50.852;4.400;2023-04-03T06:17:59;8.60;99.90
23579;DHT22;11967;50.852;4.400;2023-04-03T06:20:24;8.60;99.90
23579;DHT22;11967;50.852;4.400;2023-04-03T06:22:50;8.60;99.90
23579;DHT22;11967;50.852;4.400;2023-04-03T06:25:16;8.70;99.90
23579;DHT22;11967;50.852;4.400;2023-04-03T06:27:44;8.70;99.90
23579;DHT22;11967;50.852;4.400;2023-04-03T06:30:10;8.70;99.90
23579;DHT22;11967;50.852;4.400;2023-04-03T06:32:37;8.60;99.90
23579;DHT22;11967;50.852;4.400;2023-04-03T06:35:03;8.70;99.90
23579;DHT22;11967;50.852;4.400;2023-04-03T06:37:29;8.60;99.90
23579;DHT22;11967;50.852;4.400;2023-04-03T06:39:55;8.70;99.90
23579;DHT22;11967;50.852;4.400;2023-04-03T06:42:22;8.70;99.90
23579;DHT22;11967;50.852;4.400;2023-04-03T06:44:48;8.80;99.90
23579;DHT22;11967;50.852;4.400;2023-04-03T06:47:15;8.80;99.90
23579;DHT22;11967;50.852;4.400;2023-04-03T06:49:42;8.70;99.90
23579;DHT22;11967;50.852;4.400;2023-04-03T06:52:09;8.70;99.90
23579;DHT22;11967;50.852;4.400;2023-04-03T06:54:35;8.60;99.90
23579;DHT22;11967;50.852;4.400;2023-04-03T06:57:01;8.60;99.90
23579;DHT22;11967;50.852;4.400;2023-04-03T06:59:27;8.60;99.90
23579;DHT22;11967;50.852;4.400;2023-04-03T07:01:54;8.60;99.90
23579;DHT22;11967;50.852;4.400;2023-04-03T07:04:19;8.70;99.90
23579;DHT22;11967;50.852;4.400;2023-04-03T07:06:46;8.60;99.90
23579;DHT22;11967;50.852;4.400;2023-04-03T07:09:13;8.60;99.90
23579;DHT22;11967;50.852;4.400;2023-04-03T07:11:39;8.60;99.90
23579;DHT22;11967;50.852;4.400;2023-04-03T07:14:05;8.70;99.90
23579;DHT22;11967;50.852;4.400;2023-04-03T07:16:33;8.60;99.90
23579;DHT22;11967;50.852;4.400;2023-04-03T07:19:00;8.60;99.90
23579;DHT22;11967;50.852;4.400;2023-04-03T07:21:27;8.80;99.90
23579;DHT22;11967;50.852;4.400;2023-04-03T07:23:53;8.70;99.90
23579;DHT22;11967;50.852;4.400;2023-04-03T07:26:19;8.90;99.90
23579;DHT22;11967;50.852;4.400;2023-04-03T07:28:46;8.80;99.90
23579;DHT22;11967;50.852;4.400;2023-04-03T07:31:16;8.90;99.90
23579;DHT22;11967;50.852;4.400;2023-04-03T07:33:44;8.90;99.90
23579;DHT22;11967;50.852;4.400;2023-04-03T07:36:14;8.90;99.90
23579;DHT22;11967;50.852;4.400;2023-04-03T07:38:40;8.90;99.90
23579;DHT22;11967;50.852;4.400;2023-04-03T07:41:06;9.00;99.90
23579;DHT22;11967;50.852;4.400;2023-04-03T07:43:32;8.90;99.90
23579;DHT22;11967;50.852;4.400;2023-04-03T07:45:58;9.00;99.90
23579;DHT22;11967;50.852;4.400;2023-04-03T07:48:25;9.00;99.90
23579;DHT22;11967;50.852;4.400;2023-04-03T07:50:51;9.20;99.90
23579;DHT22;11967;50.852;4.400;2023-04-03T07:53:17;9.20;99.90
23579;DHT22;11967;50.852;4.400;2023-04-03T07:55:46;9.20;99.90
23579;DHT22;11967;50.852;4.400;2023-04-03T07:58:14;9.30;99.90
23579;DHT22;11967;50.852;4.400;2023-04-03T08:00:41;9.30;99.90
23579;DHT22;11967;50.852;4.400;2023-04-03T08:03:10;9.50;99.90
23579;DHT22;11967;50.852;4.400;2023-04-03T08:05:37;9.50;99.90
23579;DHT22;11967;50.852;4.400;2023-04-03T08:08:03;9.50;99.90
23579;DHT22;11967;50.852;4.400;2023-04-03T08:10:33;9.50;99.90
23579;DHT22;11967;50.852;4.400;2023-04-03T08:12:59;9.50;99.90
23579;DHT22;11967;50.852;4.400;2023-04-03T08:15:25;9.50;99.90
23579;DHT22;11967;50.852;4.400;2023-04-03T08:17:51;9.60;99.90
23579;DHT22;11967;50.852;4.400;2023-04-03T08:20:17;9.60;99.90
23579;DHT22;11967;50.852;4.400;2023-04-03T08:22:43;9.70;99.90
23579;DHT22;11967;50.852;4.400;2023-04-03T08:25:09;9.60;99.90
23579;DHT22;11967;50.852;4.400;2023-04-03T08:27:35;9.70;99.90
23579;DHT22;11967;50.852;4.400;2023-04-03T08:30:01;9.70;99.90
23579;DHT22;11967;50.852;4.400;2023-04-03T08:32:26;9.70;99.90
23579;DHT22;11967;50.852;4.400;2023-04-03T08:34:52;9.90;99.90
23579;DHT22;11967;50.852;4.400;2023-04-03T08:37:18;9.80;99.90
23579;DHT22;11967;50.852;4.400;2023-04-03T08:39:44;9.90;99.90
23579;DHT22;11967;50.852;4.400;2023-04-03T08:42:19;9.90;99.90
23579;DHT22;11967;50.852;4.400;2023-04-03T08:45:01;9.90;99.90
23579;DHT22;11967;50.852;4.400;2023-04-03T08:50:15;9.90;99.90
23579;DHT22;11967;50.852;4.400;2023-04-03T08:55:25;9.90;99.90
23579;DHT22;11967;50.852;4.400;2023-04-03T08:58:15;10.00;99.90
23579;DHT22;11967;50.852;4.400;2023-04-03T09:03:23;10.20;99.90
23579;DHT22;11967;50.852;4.400;2023-04-03T09:11:25;10.40;99.90
23579;DHT22;11967;50.852;4.400;2023-04-03T09:16:59;10.50;99.90
23579;DHT22;11967;50.852;4.400;2023-04-03T09:22:11;10.50;99.90
23579;DHT22;11967;50.852;4.400;2023-04-03T09:24:40;10.60;99.90
23579;DHT22;11967;50.852;4.400;2023-04-03T09:27:11;10.80;99.90
23579;DHT22;11967;50.852;4.400;2023-04-03T09:29:40;10.90;99.90
23579;DHT22;11967;50.852;4.400;2023-04-03T09:32:33;11.00;99.90
23579;DHT22;11967;50.852;4.400;2023-04-03T09:35:13;11.10;99.90
23579;DHT22;11967;50.852;4.400;2023-04-03T09:37:45;11.30;99.90
23579;DHT22;11967;50.852;4.400;2023-04-03T09:40:32;11.60;99.90
23579;DHT22;11967;50.852;4.400;2023-04-03T09:43:27;11.70;99.90
23579;DHT22;11967;50.852;4.400;2023-04-03T09:45:54;11.90;99.90
23579;DHT22;11967;50.852;4.400;2023-04-03T09:48:25;12.10;99.90
23579;DHT22;11967;50.852;4.400;2023-04-03T09:50:54;12.20;99.90
23579;DHT22;11967;50.852;4.400;2023-04-03T09:53:44;12.30;99.90
23579;DHT22;11967;50.852;4.400;2023-04-03T09:58:43;12.50;99.90
23579;DHT22;11967;50.852;4.400;2023-04-03T10:04:12;12.60;99.90
23579;DHT22;11967;50.852;4.400;2023-04-03T10:06:49;12.70;99.90
23579;DHT22;11967;50.852;4.400;2023-04-03T10:09:25;12.80;99.90
23579;DHT22;11967;50.852;4.400;2023-04-03T10:12:09;12.80;99.90
23579;DHT22;11967;50.852;4.400;2023-04-03T10:14:36;13.00;99.90
23579;DHT22;11967;50.852;4.400;2023-04-03T10:17:11;13.00;99.90
23579;DHT22;11967;50.852;4.400;2023-04-03T10:19:58;13.10;99.90
23579;DHT22;11967;50.852;4.400;2023-04-03T10:34:02;13.40;99.90
23579;DHT22;11967;50.852;4.400;2023-04-03T10:42:23;13.70;99.90
23579;DHT22;11967;50.852;4.400;2023-04-03T10:48:45;13.60;99.20
23579;DHT22;11967;50.852;4.400;2023-04-03T10:51:43;13.70;99.00
23579;DHT22;11967;50.852;4.400;2023-04-03T10:56:48;13.90;99.90
23579;DHT22;11967;50.852;4.400;2023-04-03T10:59:27;13.90;97.70
23579;DHT22;11967;50.852;4.400;2023-04-03T11:01:59;13.80;94.90
23579;DHT22;11967;50.852;4.400;2023-04-03T11:04:28;13.80;94.50
23579;DHT22;11967;50.852;4.400;2023-04-03T11:07:04;13.90;94.10
23579;DHT22;11967;50.852;4.400;2023-04-03T11:09:35;14.10;94.60
23579;DHT22;11967;50.852;4.400;2023-04-03T11:12:23;14.10;95.30
23579;DHT22;11967;50.852;4.400;2023-04-03T11:14:51;14.20;95.80
23579;DHT22;11967;50.852;4.400;2023-04-03T11:19:56;14.30;93.60
23579;DHT22;11967;50.852;4.400;2023-04-03T11:22:29;14.40;93.60
23579;DHT22;11967;50.852;4.400;2023-04-03T11:25:41;14.40;93.00
23579;DHT22;11967;50.852;4.400;2023-04-03T11:36:51;14.50;93.70
23579;DHT22;11967;50.852;4.400;2023-04-03T11:39:31;14.70;94.90
23579;DHT22;11967;50.852;4.400;2023-04-03T11:42:39;14.80;96.40
23579;DHT22;11967;50.852;4.400;2023-04-03T11:47:57;15.10;94.60
23579;DHT22;11967;50.852;4.400;2023-04-03T11:50:44;15.10;92.50
23579;DHT22;11967;50.852;4.400;2023-04-03T11:58:18;15.10;91.90
23579;DHT22;11967;50.852;4.400;2023-04-03T12:16:28;14.70;85.10
23579;DHT22;11967;50.852;4.400;2023-04-03T12:19:13;14.60;85.60
23579;DHT22;11967;50.852;4.400;2023-04-03T12:24:26;14.70;84.50
23579;DHT22;11967;50.852;4.400;2023-04-03T12:33:27;14.80;77.80
23579;DHT22;11967;50.852;4.400;2023-04-03T12:36:08;14.70;74.70
23579;DHT22;11967;50.852;4.400;2023-04-03T12:41:48;14.70;75.00
23579;DHT22;11967;50.852;4.400;2023-04-03T12:44:33;14.80;76.40
23579;DHT22;11967;50.852;4.400;2023-04-03T12:47:28;14.90;77.40
23579;DHT22;11967;50.852;4.400;2023-04-03T12:49:55;14.80;74.00
23579;DHT22;11967;50.852;4.400;2023-04-03T12:52:37;14.90;74.10
23579;DHT22;11967;50.852;4.400;2023-04-03T12:55:12;14.90;73.20
23579;DHT22;11967;50.852;4.400;2023-04-03T12:57:40;15.20;80.00
23579;DHT22;11967;50.852;4.400;2023-04-03T13:00:34;15.40;80.30
23579;DHT22;11967;50.852;4.400;2023-04-03T13:03:04;15.40;70.60
23579;DHT22;11967;50.852;4.400;2023-04-03T13:05:32;15.20;70.00
23579;DHT22;11967;50.852;4.400;2023-04-03T13:08:05;15.20;70.20
23579;DHT22;11967;50.852;4.400;2023-04-03T13:10:32;15.10;67.60
23579;DHT22;11967;50.852;4.400;2023-04-03T13:13:10;15.00;66.30
23579;DHT22;11967;50.852;4.400;2023-04-03T13:15:44;14.80;66.40
23579;DHT22;11967;50.852;4.400;2023-04-03T13:18:34;14.90;70.20
23579;DHT22;11967;50.852;4.400;2023-04-03T13:21:10;15.00;68.20
23579;DHT22;11967;50.852;4.400;2023-04-03T13:23:40;15.00;66.60
23579;DHT22;11967;50.852;4.400;2023-04-03T13:26:09;14.90;64.80
23579;DHT22;11967;50.852;4.400;2023-04-03T13:28:36;14.90;64.00
23579;DHT22;11967;50.852;4.400;2023-04-03T13:33:30;15.10;63.30
23579;DHT22;11967;50.852;4.400;2023-04-03T13:36:03;15.00;62.90
23579;DHT22;11967;50.852;4.400;2023-04-03T13:38:31;15.00;62.60
23579;DHT22;11967;50.852;4.400;2023-04-03T13:41:01;15.00;63.30
23579;DHT22;11967;50.852;4.400;2023-04-03T13:43:30;15.10;64.00
23579;DHT22;11967;50.852;4.400;2023-04-03T13:48:52;15.20;62.80
23579;DHT22;11967;50.852;4.400;2023-04-03T13:51:24;15.20;63.60
23579;DHT22;11967;50.852;4.400;2023-04-03T13:54:10;15.20;64.30
23579;DHT22;11967;50.852;4.400;2023-04-03T13:56:40;15.10;64.20
23579;DHT22;11967;50.852;4.400;2023-04-03T14:01:51;15.20;64.90
23579;DHT22;11967;50.852;4.400;2023-04-03T14:04:25;15.20;62.80
23579;DHT22;11967;50.852;4.400;2023-04-03T14:06:52;15.30;61.60
23579;DHT22;11967;50.852;4.400;2023-04-03T14:09:19;15.30;62.10
23579;DHT22;11967;50.852;4.400;2023-04-03T14:11:46;15.20;65.00
23579;DHT22;11967;50.852;4.400;2023-04-03T14:14:18;15.20;64.60
23579;DHT22;11967;50.852;4.400;2023-04-03T14:16:48;15.20;62.60
23579;DHT22;11967;50.852;4.400;2023-04-03T14:19:19;15.20;61.40
23579;DHT22;11967;50.852;4.400;2023-04-03T14:21:45;15.20;62.20
23579;DHT22;11967;50.852;4.400;2023-04-03T14:24:11;15.20;60.50
23579;DHT22;11967;50.852;4.400;2023-04-03T14:26:37;15.10;62.00
23579;DHT22;11967;50.852;4.400;2023-04-03T14:29:03;15.10;63.40
23579;DHT22;11967;50.852;4.400;2023-04-03T14:31:30;15.30;64.10
23579;DHT22;11967;50.852;4.400;2023-04-03T14:33:55;15.30;64.40
23579;DHT22;11967;50.852;4.400;2023-04-03T14:36:24;15.30;62.10
23579;DHT22;11967;50.852;4.400;2023-04-03T14:38:51;15.30;63.30
23579;DHT22;11967;50.852;4.400;2023-04-03T14:41:19;15.30;63.40
23579;DHT22;11967;50.852;4.400;2023-04-03T14:43:46;15.30;63.20
23579;DHT22;11967;50.852;4.400;2023-04-03T14:46:21;15.40;63.30
23579;DHT22;11967;50.852;4.400;2023-04-03T14:48:49;15.40;64.10
23579;DHT22;11967;50.852;4.400;2023-04-03T14:51:15;15.40;64.20
23579;DHT22;11967;50.852;4.400;2023-04-03T14:53:43;15.40;62.40
23579;DHT22;11967;50.852;4.400;2023-04-03T14:56:23;15.50;68.50
23579;DHT22;11967;50.852;4.400;2023-04-03T14:58:51;15.70;69.10
23579;DHT22;11967;50.852;4.400;2023-04-03T15:01:19;15.80;66.50
23579;DHT22;11967;50.852;4.400;2023-04-03T15:03:45;15.70;64.20
23579;DHT22;11967;50.852;4.400;2023-04-03T15:06:12;15.60;64.50
23579;DHT22;11967;50.852;4.400;2023-04-03T15:08:38;15.40;62.90
23579;DHT22;11967;50.852;4.400;2023-04-03T15:11:03;15.40;65.20
23579;DHT22;11967;50.852;4.400;2023-04-03T15:13:29;15.30;60.80
23579;DHT22;11967;50.852;4.400;2023-04-03T15:15:55;15.40;61.20
23579;DHT22;11967;50.852;4.400;2023-04-03T15:18:26;15.40;61.40
23579;DHT22;11967;50.852;4.400;2023-04-03T15:20:53;15.40;61.40
23579;DHT22;11967;50.852;4.400;2023-04-03T15:23:20;15.40;60.40
23579;DHT22;11967;50.852;4.400;2023-04-03T15:25:54;15.40;60.20
23579;DHT22;11967;50.852;4.400;2023-04-03T15:28:40;15.40;59.90
23579;DHT22;11967;50.852;4.400;2023-04-03T15:31:07;15.40;58.80
23579;DHT22;11967;50.852;4.400;2023-04-03T15:33:33;15.30;57.80
23579;DHT22;11967;50.852;4.400;2023-04-03T15:35:59;15.40;58.10
23579;DHT22;11967;50.852;4.400;2023-04-03T15:38:25;15.30;58.80
23579;DHT22;11967;50.852;4.400;2023-04-03T15:40:50;15.40;59.80
23579;DHT22;11967;50.852;4.400;2023-04-03T15:43:17;15.50;59.00
23579;DHT22;11967;50.852;4.400;2023-04-03T15:45:45;15.30;56.60
23579;DHT22;11967;50.852;4.400;2023-04-03T15:48:11;15.20;56.90
23579;DHT22;11967;50.852;4.400;2023-04-03T15:50:37;15.10;57.20
23579;DHT22;11967;50.852;4.400;2023-04-03T15:53:03;15.00;59.00
23579;DHT22;11967;50.852;4.400;2023-04-03T15:55:32;15.00;59.80
23579;DHT22;11967;50.852;4.400;2023-04-03T15:57:58;15.10;60.90
23579;DHT22;11967;50.852;4.400;2023-04-03T16:00:25;15.20;61.00
23579;DHT22;11967;50.852;4.400;2023-04-03T16:02:55;15.20;61.40
23579;DHT22;11967;50.852;4.400;2023-04-03T16:05:27;15.20;62.00
23579;DHT22;11967;50.852;4.400;2023-04-03T16:07:53;15.20;63.20
23579;DHT22;11967;50.852;4.400;2023-04-03T16:10:20;15.30;62.80
23579;DHT22;11967;50.852;4.400;2023-04-03T16:12:46;15.20;64.70
23579;DHT22;11967;50.852;4.400;2023-04-03T16:15:11;15.20;64.90
23579;DHT22;11967;50.852;4.400;2023-04-03T16:17:38;15.20;63.80
23579;DHT22;11967;50.852;4.400;2023-04-03T16:20:07;15.30;63.20
23579;DHT22;11967;50.852;4.400;2023-04-03T16:22:34;15.20;63.70
23579;DHT22;11967;50.852;4.400;2023-04-03T16:25:00;15.20;64.80
23579;DHT22;11967;50.852;4.400;2023-04-03T16:27:26;15.30;64.70
23579;DHT22;11967;50.852;4.400;2023-04-03T16:29:54;15.30;64.00
23579;DHT22;11967;50.852;4.400;2023-04-03T16:32:20;15.20;64.10
23579;DHT22;11967;50.852;4.400;2023-04-03T16:34:48;15.20;64.30
23579;DHT22;11967;50.852;4.400;2023-04-03T16:37:13;15.10;63.60
23579;DHT22;11967;50.852;4.400;2023-04-03T16:39:40;15.10;63.40
23579;DHT22;11967;50.852;4.400;2023-04-03T16:42:05;15.10;65.30
23579;DHT22;11967;50.852;4.400;2023-04-03T16:44:31;15.10;65.20
23579;DHT22;11967;50.852;4.400;2023-04-03T16:46:59;15.00;65.60
23579;DHT22;11967;50.852;4.400;2023-04-03T16:49:25;15.00;66.60
23579;DHT22;11967;50.852;4.400;2023-04-03T16:51:53;15.10;66.70
23579;DHT22;11967;50.852;4.400;2023-04-03T16:54:18;15.10;66.90
23579;DHT22;11967;50.852;4.400;2023-04-03T16:56:45;15.10;66.60
23579;DHT22;11967;50.852;4.400;2023-04-03T16:59:11;15.00;67.70
23579;DHT22;11967;50.852;4.400;2023-04-03T17:01:36;15.10;67.70
23579;DHT22;11967;50.852;4.400;2023-04-03T17:04:02;15.20;67.60
23579;DHT22;11967;50.852;4.400;2023-04-03T17:06:27;15.10;66.70
23579;DHT22;11967;50.852;4.400;2023-04-03T17:08:53;15.10;66.20
23579;DHT22;11967;50.852;4.400;2023-04-03T17:11:20;15.10;66.00
23579;DHT22;11967;50.852;4.400;2023-04-03T17:13:45;15.10;65.80
23579;DHT22;11967;50.852;4.400;2023-04-03T17:16:14;15.10;65.80
23579;DHT22;11967;50.852;4.400;2023-04-03T17:18:40;15.00;66.20
23579;DHT22;11967;50.852;4.400;2023-04-03T17:21:06;14.90;66.30
23579;DHT22;11967;50.852;4.400;2023-04-03T17:23:34;14.90;67.20
23579;DHT22;11967;50.852;4.400;2023-04-03T17:26:03;14.90;67.50
23579;DHT22;11967;50.852;4.400;2023-04-03T17:28:29;14.90;67.40
23579;DHT22;11967;50.852;4.400;2023-04-03T17:30:57;14.80;67.20
23579;DHT22;11967;50.852;4.400;2023-04-03T17:33:24;14.90;67.80
23579;DHT22;11967;50.852;4.400;2023-04-03T17:35:51;14.80;67.90
23579;DHT22;11967;50.852;4.400;2023-04-03T17:38:17;14.80;73.10
23579;DHT22;11967;50.852;4.400;2023-04-03T17:40:43;14.70;68.60